Main page
METAR-TAF:

METAR-TAF

Airports :

Ohrid, Macedonia

Ohrid "St. Paul the Apostle" Airport

latitude: 41-07N, longitude: 020-48E, elevation: 760 m

Current weather observation

The report was made 4 hours and 19 minutes ago, at 19:00 UTC
Wind 7 kt from the South, varying between South/Southeast and South/Southwest
Temperature 6°C
Humidity 70%
Pressure 1014 hPa
Visibility 10 km or more
Broken clouds at a height of 4000 ft

METAR: LWOH 191900Z 18007KT 150V210 9999 BKN040 06/01 Q1014

Time: 00:19 (23:19 UTC)

Forecast

The report was made 2 hours and 49 minutes ago, at 20:30 UTC
Forecast valid from 19 at 21 UTC to 20 at 21 UTC
Wind 8 kt from the South
Visibility 10 km or more
Broken clouds at a height of 4000 ft
Temporary
from 20 at 12 UTC to 20 at 18 UTC
Wind 10 kt from the West/Southwest
Scattered clouds at a height of 2000 ft
Broken clouds at a height of 3300 ft
rain

TAF: LWOH 192030Z 1921/2021 18008KT 9999 BKN040 TEMPO 2012/2018 24010KT RA SCT020 BKN033

Weather observations and forecasts of more than 4000 airports (METAR and TAF reports).

The available stations are represented by yellow and red dots on the map.

Hover mouse over dot to see the name of the station.

Then click to see weather observations and forecasts.

To change the map : click on the green buttons with a black cross to zoom in, on the green button with a dash to zoom out, or on the green arrows for adjacent maps.


METAR-TAF: